Time;durP1;ratioP1;P1;durP2;ratioP2;P2;SDS_P1;SDS_P2;PMS_P1;PMS_P2;Temp;Humidity;BMP_temperature;BMP_pressure;BME280_temperature;BME280_humidity;BME280_pressure;Samples;Min_cycle;Max_cycle;Signal;HPM_P1;HPM_P2
2024/01/15 00:00:33;;;;;;;96.00;30.97;;;1.90;97.80;;;;;;767571;184;26473;-75
2024/01/15 00:03:01;;;;;;;92.47;31.27;;;1.80;98.00;;;;;;786428;177;26435;-74
2024/01/15 00:05:27;;;;;;;93.00;30.53;;;1.80;98.40;;;;;;781589;184;26499;-74
2024/01/15 00:07:54;;;;;;;92.17;29.97;;;1.70;98.70;;;;;;772743;180;26493;-74
2024/01/15 00:10:21;;;;;;;95.73;30.73;;;1.70;98.90;;;;;;781475;180;26512;-74
2024/01/15 00:12:49;;;;;;;115.33;35.67;;;1.60;99.20;;;;;;776936;182;26541;-73
2024/01/15 00:15:15;;;;;;;120.93;38.23;;;1.60;99.50;;;;;;776127;184;26511;-74
2024/01/15 00:17:42;;;;;;;102.47;36.50;;;1.60;99.60;;;;;;775851;184;26578;-73
2024/01/15 00:20:09;;;;;;;104.30;33.17;;;1.70;99.80;;;;;;783872;181;26476;-73
2024/01/15 00:22:36;;;;;;;109.80;33.47;;;1.70;99.70;;;;;;774148;183;27027;-75
2024/01/15 00:25:03;;;;;;;105.80;35.50;;;1.70;99.50;;;;;;762233;188;26547;-75
2024/01/15 00:27:30;;;;;;;105.70;32.13;;;1.70;99.60;;;;;;785953;181;26436;-75
2024/01/15 00:29:57;;;;;;;102.07;31.83;;;1.70;99.60;;;;;;790140;179;26453;-75
2024/01/15 00:32:24;;;;;;;115.63;32.97;;;1.60;99.80;;;;;;781800;180;27096;-74
2024/01/15 00:34:50;;;;;;;100.40;32.60;;;1.50;99.90;;;;;;787618;181;27077;-75
2024/01/15 00:37:17;;;;;;;105.57;32.73;;;1.50;99.90;;;;;;786019;177;26500;-74
2024/01/15 00:39:44;;;;;;;104.70;32.27;;;1.50;99.90;;;;;;788962;180;27008;-74
2024/01/15 00:42:11;;;;;;;108.20;31.33;;;1.50;99.90;;;;;;786140;180;26620;-74
2024/01/15 00:44:37;;;;;;;116.77;37.60;;;1.40;99.90;;;;;;787359;180;27007;-74
2024/01/15 00:47:05;;;;;;;119.40;34.47;;;1.40;99.90;;;;;;785311;181;26435;-74
2024/01/15 00:49:31;;;;;;;129.33;35.23;;;1.40;99.90;;;;;;770892;180;26608;-75
2024/01/15 00:51:58;;;;;;;119.03;34.40;;;1.30;99.90;;;;;;747763;191;26584;-74
2024/01/15 00:54:25;;;;;;;133.00;38.70;;;1.30;99.90;;;;;;749812;190;26596;-74
2024/01/15 00:56:51;;;;;;;136.63;38.20;;;1.30;99.90;;;;;;759832;187;26531;-75
2024/01/15 00:59:20;;;;;;;122.60;35.70;;;1.30;99.90;;;;;;756914;189;26483;-74
2024/01/15 01:01:45;;;;;;;152.93;37.03;;;1.40;99.90;;;;;;769274;184;27043;-75
2024/01/15 01:04:11;;;;;;;118.03;37.20;;;1.40;99.90;;;;;;766314;183;26506;-75
2024/01/15 01:06:38;;;;;;;135.20;39.07;;;1.40;99.90;;;;;;769565;185;27055;-75
2024/01/15 01:09:05;;;;;;;140.20;39.60;;;1.40;99.90;;;;;;771234;184;26548;-75
2024/01/15 01:11:31;;;;;;;125.07;38.83;;;1.50;99.90;;;;;;772033;183;27029;-74
2024/01/15 01:13:57;;;;;;;133.07;37.47;;;1.50;99.90;;;;;;767257;184;26470;-72
2024/01/15 01:16:24;;;;;;;147.30;45.03;;;1.50;99.90;;;;;;773537;181;27141;-74
2024/01/15 01:18:51;;;;;;;138.77;42.57;;;1.50;99.90;;;;;;764765;185;26582;-76
2024/01/15 01:21:17;;;;;;;133.73;40.70;;;1.50;99.90;;;;;;777045;183;27116;-74
2024/01/15 01:23:44;;;;;;;124.90;36.93;;;1.50;99.90;;;;;;770555;183;26488;-77
2024/01/15 01:26:10;;;;;;;127.43;36.43;;;1.50;99.90;;;;;;774161;183;27167;-74
2024/01/15 01:28:38;;;;;;;117.13;35.00;;;1.50;99.90;;;;;;764638;187;26502;-76
2024/01/15 01:31:04;;;;;;;132.87;36.87;;;1.50;99.90;;;;;;772006;183;26581;-77
2024/01/15 01:33:30;;;;;;;118.03;37.20;;;1.50;99.90;;;;;;770740;184;26506;-74
2024/01/15 01:35:57;;;;;;;132.77;37.80;;;1.50;99.90;;;;;;773055;184;26485;-74
2024/01/15 01:38:23;;;;;;;131.50;36.87;;;1.50;99.90;;;;;;766735;187;26578;-75
2024/01/15 01:40:50;;;;;;;114.00;34.70;;;1.50;99.90;;;;;;779439;182;27118;-74
2024/01/15 01:43:17;;;;;;;105.10;31.00;;;1.60;99.90;;;;;;781225;183;26534;-75
2024/01/15 01:45:43;;;;;;;114.63;34.60;;;1.60;99.90;;;;;;770853;183;27137;-72
2024/01/15 01:48:10;;;;;;;108.07;36.27;;;1.60;99.90;;;;;;773142;184;26531;-75
2024/01/15 01:50:36;;;;;;;131.13;35.50;;;1.60;99.90;;;;;;767301;183;27122;-75
2024/01/15 01:53:04;;;;;;;109.20;34.17;;;1.60;99.90;;;;;;771500;186;26534;-74
2024/01/15 01:55:30;;;;;;;134.63;41.43;;;1.70;99.90;;;;;;773914;184;26574;-75
2024/01/15 01:57:56;;;;;;;121.27;35.80;;;1.70;99.90;;;;;;779285;184;26480;-74
2024/01/15 02:00:23;;;;;;;110.83;32.50;;;1.70;99.90;;;;;;775945;184;26505;-72
2024/01/15 02:02:49;;;;;;;110.47;35.73;;;1.70;99.90;;;;;;749015;189;26568;-74
2024/01/15 02:05:16;;;;;;;107.13;33.00;;;1.70;99.90;;;;;;743790;190;26589;-75
2024/01/15 02:07:43;;;;;;;101.73;32.20;;;1.70;99.90;;;;;;767999;183;27035;-74
2024/01/15 02:10:09;;;;;;;91.17;30.23;;;1.70;99.90;;;;;;767104;187;26542;-74
2024/01/15 02:12:36;;;;;;;106.73;32.30;;;1.80;99.90;;;;;;767220;187;28060;-75
2024/01/15 02:15:03;;;;;;;139.07;40.90;;;1.80;99.90;;;;;;770173;183;26529;-75
2024/01/15 02:17:29;;;;;;;115.40;40.30;;;1.80;99.90;;;;;;771072;183;27314;-76
2024/01/15 02:19:56;;;;;;;101.30;34.53;;;1.80;99.90;;;;;;776129;181;26488;-74
2024/01/15 02:22:22;;;;;;;102.00;33.40;;;1.90;99.90;;;;;;776612;184;26548;-75
2024/01/15 02:24:49;;;;;;;96.53;32.03;;;1.90;99.90;;;;;;771289;183;26534;-72
2024/01/15 02:27:16;;;;;;;107.27;32.97;;;1.90;99.90;;;;;;765663;183;26542;-73
2024/01/15 02:29:42;;;;;;;107.23;34.17;;;1.80;99.90;;;;;;767817;184;26514;-75
2024/01/15 02:32:09;;;;;;;107.73;34.23;;;1.80;99.90;;;;;;780516;183;26581;-74
2024/01/15 02:34:35;;;;;;;112.00;33.80;;;1.80;99.90;;;;;;779769;183;27104;-74
2024/01/15 02:37:02;;;;;;;102.60;34.50;;;1.80;99.90;;;;;;767531;183;26508;-74
2024/01/15 02:39:29;;;;;;;105.37;32.77;;;1.90;99.90;;;;;;766753;184;27326;-74
2024/01/15 02:41:57;;;;;;;97.37;32.17;;;1.90;99.90;;;;;;764817;185;26558;-74
2024/01/15 02:44:22;;;;;;;93.30;31.40;;;1.90;99.90;;;;;;768284;183;27123;-74
2024/01/15 02:46:48;;;;;;;112.97;34.93;;;1.90;99.90;;;;;;771593;184;26469;-74
2024/01/15 02:49:15;;;;;;;120.23;35.60;;;1.90;99.90;;;;;;770144;183;28158;-74
2024/01/15 02:51:41;;;;;;;113.50;36.17;;;1.90;99.90;;;;;;768905;185;26524;-75
2024/01/15 02:54:08;;;;;;;117.67;34.90;;;1.90;99.90;;;;;;774230;184;26523;-74
2024/01/15 02:56:35;;;;;;;109.70;35.00;;;1.90;99.90;;;;;;770335;184;26546;-74
2024/01/15 02:59:01;;;;;;;103.70;32.03;;;1.90;99.90;;;;;;772746;183;26556;-74
2024/01/15 03:01:28;;;;;;;82.13;28.83;;;1.90;99.90;;;;;;776780;183;26547;-74
2024/01/15 03:03:55;;;;;;;106.30;36.43;;;1.90;99.90;;;;;;779908;183;26474;-75
2024/01/15 03:06:21;;;;;;;89.30;30.80;;;1.90;99.90;;;;;;776663;183;26520;-74
2024/01/15 03:08:48;;;;;;;95.37;30.10;;;1.90;99.90;;;;;;769113;184;26530;-74
2024/01/15 03:11:14;;;;;;;97.33;29.80;;;1.90;99.90;;;;;;768741;183;27099;-74
2024/01/15 03:13:41;;;;;;;94.70;31.70;;;1.90;99.90;;;;;;768484;184;26453;-75
2024/01/15 03:16:07;;;;;;;76.70;27.70;;;1.90;99.90;;;;;;767732;183;27078;-74
2024/01/15 03:18:34;;;;;;;101.53;33.27;;;1.90;99.90;;;;;;771050;183;26515;-73
2024/01/15 03:21:01;;;;;;;68.70;26.57;;;1.90;99.90;;;;;;764152;183;27080;-74
2024/01/15 03:23:27;;;;;;;80.00;28.67;;;1.90;99.90;;;;;;765000;183;26468;-75
2024/01/15 03:25:54;;;;;;;83.77;29.90;;;1.90;99.90;;;;;;772944;182;28189;-73
2024/01/15 03:28:20;;;;;;;99.00;34.40;;;1.90;99.90;;;;;;775253;184;26499;-75
2024/01/15 03:30:47;;;;;;;92.87;31.93;;;1.90;99.90;;;;;;769399;183;30020;-74
2024/01/15 03:33:13;;;;;;;79.73;29.13;;;1.90;99.90;;;;;;770809;182;26477;-74
2024/01/15 03:35:40;;;;;;;73.43;27.83;;;1.90;99.90;;;;;;776332;183;26506;-73
2024/01/15 03:38:07;;;;;;;83.33;26.67;;;1.90;99.90;;;;;;780764;183;26592;-74
2024/01/15 03:40:33;;;;;;;80.43;30.37;;;1.90;99.90;;;;;;766350;183;26515;-74
2024/01/15 03:43:00;;;;;;;79.70;28.90;;;1.90;99.90;;;;;;764662;188;26503;-75
2024/01/15 03:45:26;;;;;;;108.90;37.10;;;2.00;99.90;;;;;;772780;183;26523;-75
2024/01/15 03:47:53;;;;;;;80.67;30.60;;;2.00;99.90;;;;;;771216;184;27077;-74
2024/01/15 03:50:20;;;;;;;87.10;31.23;;;2.00;99.90;;;;;;768276;184;27066;-75
2024/01/15 03:52:46;;;;;;;86.67;31.83;;;2.00;99.90;;;;;;770669;186;26492;-72
2024/01/15 03:55:13;;;;;;;90.67;34.67;;;2.00;99.90;;;;;;768203;184;26477;-74
2024/01/15 03:57:39;;;;;;;75.73;26.77;;;2.00;99.90;;;;;;768885;183;26536;-75
2024/01/15 04:00:07;;;;;;;98.63;33.70;;;2.00;99.90;;;;;;769652;183;26496;-75
2024/01/15 04:02:33;;;;;;;92.57;32.43;;;2.00;99.90;;;;;;768040;186;26561;-74
2024/01/15 04:05:00;;;;;;;83.87;31.57;;;2.00;99.90;;;;;;767579;183;26537;-74
2024/01/15 04:07:27;;;;;;;101.53;32.87;;;2.00;99.90;;;;;;771606;183;26572;-75
2024/01/15 04:09:53;;;;;;;90.57;32.03;;;2.00;99.90;;;;;;765871;184;26561;-74
2024/01/15 04:12:20;;;;;;;101.20;35.03;;;2.10;99.90;;;;;;757694;189;27154;-75
2024/01/15 04:14:47;;;;;;;96.13;33.50;;;2.00;99.90;;;;;;770401;180;26486;-76
2024/01/15 04:17:13;;;;;;;91.40;33.00;;;2.10;99.90;;;;;;774176;184;26517;-74
2024/01/15 04:19:43;;;;;;;94.83;31.07;;;2.10;99.90;;;;;;766354;186;27105;-75
2024/01/15 04:22:06;;;;;;;89.67;32.60;;;2.10;99.90;;;;;;763000;188;27038;-75
2024/01/15 04:24:33;;;;;;;85.83;31.57;;;2.10;99.90;;;;;;763329;187;26468;-75
2024/01/15 04:26:59;;;;;;;84.93;30.23;;;2.10;99.90;;;;;;768226;183;27073;-72
2024/01/15 04:29:26;;;;;;;78.80;30.30;;;2.10;99.90;;;;;;763926;187;26485;-74
2024/01/15 04:31:53;;;;;;;88.73;30.80;;;2.10;99.90;;;;;;767170;183;26510;-75
2024/01/15 04:34:19;;;;;;;81.37;29.77;;;2.10;99.90;;;;;;779585;184;27037;-76
2024/01/15 04:36:46;;;;;;;85.33;30.23;;;2.10;99.90;;;;;;771615;184;26478;-75
2024/01/15 04:39:13;;;;;;;67.93;28.63;;;2.10;99.90;;;;;;769660;184;26505;-75
2024/01/15 04:41:39;;;;;;;73.37;27.63;;;2.10;99.90;;;;;;764717;183;26463;-75
2024/01/15 04:44:06;;;;;;;77.87;29.57;;;2.10;99.90;;;;;;764718;188;26477;-74
2024/01/15 04:46:33;;;;;;;72.93;27.17;;;2.10;99.80;;;;;;774790;183;27033;-75
2024/01/15 04:48:59;;;;;;;81.30;28.27;;;2.10;99.90;;;;;;774449;183;26562;-74
2024/01/15 04:51:26;;;;;;;74.90;27.07;;;2.10;99.90;;;;;;770240;184;27061;-73
2024/01/15 04:53:52;;;;;;;83.43;28.83;;;2.10;99.80;;;;;;770986;183;26541;-75
2024/01/15 04:56:19;;;;;;;75.33;28.67;;;2.20;99.70;;;;;;775198;181;26456;-76
2024/01/15 04:58:46;;;;;;;65.27;24.33;;;2.20;99.70;;;;;;775183;183;26469;-75
2024/01/15 05:01:12;;;;;;;74.10;26.80;;;2.20;99.60;;;;;;770683;185;27035;-75
2024/01/15 05:03:39;;;;;;;66.67;25.40;;;2.20;99.60;;;;;;770769;186;26479;-74
2024/01/15 05:06:06;;;;;;;59.20;24.23;;;2.20;99.60;;;;;;769237;184;26452;-75
2024/01/15 05:08:32;;;;;;;62.07;22.17;;;2.20;99.50;;;;;;771744;183;27007;-76
2024/01/15 05:10:59;;;;;;;61.77;23.97;;;2.30;99.70;;;;;;778869;183;26500;-75
2024/01/15 05:13:25;;;;;;;65.03;24.27;;;2.30;99.60;;;;;;767815;183;26527;-74
2024/01/15 05:15:52;;;;;;;64.30;25.63;;;2.30;99.50;;;;;;768997;183;26526;-72
2024/01/15 05:18:19;;;;;;;64.00;25.17;;;2.30;99.40;;;;;;769630;183;26490;-75
2024/01/15 05:20:45;;;;;;;67.73;26.07;;;2.30;99.50;;;;;;768123;184;26541;-76
2024/01/15 05:23:12;;;;;;;61.93;25.60;;;2.30;99.60;;;;;;766093;182;26513;-75
2024/01/15 05:25:38;;;;;;;62.53;25.27;;;2.30;99.50;;;;;;769192;183;27079;-74
2024/01/15 05:28:05;;;;;;;65.37;24.53;;;2.30;99.60;;;;;;771075;183;26460;-76
2024/01/15 05:30:32;;;;;;;59.80;23.83;;;2.30;99.70;;;;;;772906;183;26565;-75
2024/01/15 05:33:00;;;;;;;64.10;24.37;;;2.30;99.60;;;;;;773252;183;26518;-75
2024/01/15 05:35:25;;;;;;;57.97;25.13;;;2.40;99.60;;;;;;778242;183;26547;-76
2024/01/15 05:37:52;;;;;;;57.10;23.97;;;2.40;99.60;;;;;;767879;183;26492;-75
2024/01/15 05:40:18;;;;;;;59.73;24.10;;;2.40;99.60;;;;;;772602;183;26484;-68
2024/01/15 05:42:45;;;;;;;63.87;26.90;;;2.50;99.70;;;;;;775587;180;26484;-69
2024/01/15 05:45:12;;;;;;;73.30;26.33;;;2.50;99.70;;;;;;783234;183;26481;-69
2024/01/15 05:47:38;;;;;;;52.37;21.00;;;2.60;99.80;;;;;;772243;184;26467;-73
2024/01/15 05:50:06;;;;;;;57.13;23.27;;;2.60;99.50;;;;;;773265;183;27115;-76
2024/01/15 05:52:32;;;;;;;56.20;21.97;;;2.40;99.10;;;;;;773204;183;26537;-76
2024/01/15 05:54:58;;;;;;;50.13;20.63;;;2.30;99.20;;;;;;772671;183;26602;-76
2024/01/15 05:57:25;;;;;;;62.37;23.20;;;2.30;99.50;;;;;;767050;183;26482;-75
2024/01/15 05:59:52;;;;;;;54.17;23.23;;;2.30;99.90;;;;;;765260;183;28161;-76
2024/01/15 06:02:18;;;;;;;58.80;20.73;;;2.20;99.80;;;;;;774186;183;26463;-76
2024/01/15 06:04:45;;;;;;;54.70;22.57;;;2.30;99.90;;;;;;778402;183;26464;-75
2024/01/15 06:07:11;;;;;;;51.17;22.20;;;2.30;99.90;;;;;;774501;185;26548;-76
2024/01/15 06:09:38;;;;;;;58.13;23.73;;;2.30;99.80;;;;;;773280;183;26575;-76
2024/01/15 06:12:05;;;;;;;53.80;22.23;;;2.30;99.70;;;;;;768117;183;26574;-73
2024/01/15 06:14:32;;;;;;;55.37;21.27;;;2.40;99.70;;;;;;767154;184;26474;-75
2024/01/15 06:16:58;;;;;;;54.77;21.20;;;2.40;99.60;;;;;;770440;183;27087;-76
2024/01/15 06:19:25;;;;;;;50.80;22.23;;;2.40;99.70;;;;;;767659;183;26532;-75
2024/01/15 06:21:52;;;;;;;62.00;22.97;;;2.40;99.70;;;;;;771224;183;26505;-76
2024/01/15 06:24:20;;;;;;;55.10;24.10;;;2.40;99.80;;;;;;774611;183;26568;-73
2024/01/15 06:26:45;;;;;;;59.07;25.43;;;2.40;99.90;;;;;;780623;182;26477;-75
2024/01/15 06:29:11;;;;;;;60.07;26.20;;;2.40;99.90;;;;;;778280;183;26544;-76
2024/01/15 06:31:38;;;;;;;61.43;24.60;;;2.40;99.80;;;;;;773820;183;26505;-76
2024/01/15 06:34:05;;;;;;;59.83;25.40;;;2.50;99.90;;;;;;772828;183;26528;-74
2024/01/15 06:36:31;;;;;;;58.93;26.87;;;2.50;99.90;;;;;;778521;183;26515;-75
2024/01/15 06:38:58;;;;;;;56.87;23.10;;;2.50;99.90;;;;;;777388;182;27113;-75
2024/01/15 06:41:25;;;;;;;56.10;24.37;;;2.50;99.90;;;;;;763758;183;26524;-74
2024/01/15 06:43:51;;;;;;;58.53;23.87;;;2.50;99.70;;;;;;772205;184;27075;-76
2024/01/15 06:46:21;;;;;;;57.87;24.17;;;2.50;99.80;;;;;;773847;183;26525;-76
2024/01/15 06:48:58;;;;;;;60.27;24.13;;;2.40;99.90;;;;;;775466;184;27109;-73
2024/01/15 06:51:24;;;;;;;69.77;27.77;;;2.40;99.70;;;;;;761092;184;27099;-74
2024/01/15 06:53:51;;;;;;;62.03;24.60;;;2.40;99.80;;;;;;764744;185;26568;-74
2024/01/15 06:56:17;;;;;;;67.73;26.77;;;2.40;99.80;;;;;;760989;185;27044;-75
2024/01/15 06:58:44;;;;;;;63.40;26.00;;;2.40;99.90;;;;;;764616;186;26520;-74
2024/01/15 07:01:11;;;;;;;69.03;27.20;;;2.40;99.90;;;;;;773426;183;27067;-74
2024/01/15 07:03:37;;;;;;;72.27;27.50;;;2.40;99.90;;;;;;766551;183;26505;-74
2024/01/15 07:06:04;;;;;;;72.37;26.13;;;2.40;99.90;;;;;;768236;183;27133;-74
2024/01/15 07:08:31;;;;;;;72.53;27.63;;;2.40;99.90;;;;;;767536;186;27112;-74
2024/01/15 07:10:57;;;;;;;66.23;28.00;;;2.40;99.90;;;;;;766942;183;26561;-73
2024/01/15 07:13:24;;;;;;;67.93;27.30;;;2.40;99.90;;;;;;767844;186;26557;-74
2024/01/15 07:15:51;;;;;;;68.00;27.77;;;2.40;99.90;;;;;;765673;186;26544;-73
2024/01/15 07:18:17;;;;;;;67.57;28.13;;;2.40;99.90;;;;;;766256;186;27166;-74
2024/01/15 07:20:44;;;;;;;59.60;22.73;;;2.40;99.90;;;;;;768534;186;26479;-74
2024/01/15 07:23:10;;;;;;;65.77;24.30;;;2.40;99.90;;;;;;768605;186;27083;-74
2024/01/15 07:25:37;;;;;;;55.43;23.73;;;2.40;99.90;;;;;;771923;185;26519;-74
2024/01/15 07:28:04;;;;;;;53.57;24.57;;;2.40;99.90;;;;;;770289;186;27090;-74
2024/01/15 07:30:30;;;;;;;54.30;21.87;;;2.40;99.90;;;;;;763595;185;26946;-73
2024/01/15 07:32:57;;;;;;;59.07;26.00;;;2.40;99.90;;;;;;767361;185;26581;-74
2024/01/15 07:35:24;;;;;;;61.23;23.17;;;2.50;99.90;;;;;;766130;185;26516;-74
2024/01/15 07:37:50;;;;;;;66.23;27.23;;;2.50;99.90;;;;;;768162;183;26466;-74
2024/01/15 07:40:17;;;;;;;64.90;25.70;;;2.50;99.90;;;;;;769178;184;26565;-74
2024/01/15 07:42:43;;;;;;;52.70;21.17;;;2.50;99.90;;;;;;765726;185;26528;-73
2024/01/15 07:45:10;;;;;;;56.93;24.73;;;2.50;99.80;;;;;;770961;186;26597;-73
2024/01/15 07:47:36;;;;;;;56.47;23.57;;;2.50;99.80;;;;;;766763;186;26482;-74
2024/01/15 07:50:04;;;;;;;63.53;25.30;;;2.50;99.90;;;;;;769017;185;26560;-73
2024/01/15 07:52:30;;;;;;;65.20;26.80;;;2.60;99.90;;;;;;769005;186;26550;-74
2024/01/15 07:54:59;;;;;;;64.37;26.53;;;2.60;99.90;;;;;;769018;186;26525;-74
2024/01/15 07:57:23;;;;;;;56.93;23.50;;;2.60;99.80;;;;;;766602;186;26537;-74
2024/01/15 07:59:51;;;;;;;77.80;27.50;;;2.60;99.80;;;;;;767887;183;26549;-73
2024/01/15 08:02:16;;;;;;;60.83;23.80;;;2.70;99.40;;;;;;767737;186;26527;-74
2024/01/15 08:04:43;;;;;;;61.30;26.33;;;2.70;99.20;;;;;;768619;186;26517;-74
2024/01/15 08:07:09;;;;;;;59.60;26.07;;;2.70;99.00;;;;;;767800;185;26597;-74
2024/01/15 08:09:36;;;;;;;63.77;26.87;;;2.70;99.10;;;;;;763093;186;26536;-74
2024/01/15 08:12:05;;;;;;;65.37;26.77;;;2.70;99.20;;;;;;765963;185;27083;-74
2024/01/15 08:14:29;;;;;;;60.63;26.10;;;2.80;99.10;;;;;;765675;187;27087;-73
2024/01/15 08:16:56;;;;;;;61.77;26.10;;;2.80;98.70;;;;;;765856;185;26476;-75
2024/01/15 08:19:23;;;;;;;64.50;24.63;;;2.80;98.20;;;;;;766686;185;26566;-74
2024/01/15 08:21:49;;;;;;;72.57;29.77;;;2.80;98.40;;;;;;769329;186;26572;-74
2024/01/15 08:24:16;;;;;;;64.90;26.90;;;2.80;98.00;;;;;;772255;183;26495;-76
2024/01/15 08:26:42;;;;;;;67.77;26.97;;;2.90;97.90;;;;;;767090;184;26521;-74
2024/01/15 08:29:09;;;;;;;64.37;25.90;;;2.80;97.80;;;;;;766990;184;26508;-74
2024/01/15 08:31:36;;;;;;;65.23;27.17;;;2.80;98.00;;;;;;770343;185;26512;-74
2024/01/15 08:34:02;;;;;;;64.30;27.93;;;2.80;98.00;;;;;;763336;184;26467;-74
2024/01/15 08:36:30;;;;;;;53.57;25.70;;;2.80;98.00;;;;;;761959;185;27052;-74
2024/01/15 08:38:56;;;;;;;68.10;27.40;;;2.80;97.90;;;;;;767979;185;26486;-74
2024/01/15 08:41:24;;;;;;;68.33;28.13;;;2.80;98.10;;;;;;770510;186;26531;-74
2024/01/15 08:43:49;;;;;;;73.53;27.90;;;2.80;98.30;;;;;;774448;185;26527;-73
2024/01/15 08:46:16;;;;;;;63.00;25.10;;;2.80;98.10;;;;;;768169;184;26467;-74
2024/01/15 08:48:43;;;;;;;70.17;28.37;;;2.90;98.10;;;;;;764655;186;26476;-74
2024/01/15 08:51:09;;;;;;;66.20;27.80;;;2.80;98.10;;;;;;765906;184;26527;-74
2024/01/15 08:53:36;;;;;;;48.43;21.63;;;2.80;98.30;;;;;;771930;185;26500;-74
2024/01/15 08:56:02;;;;;;;64.87;27.50;;;2.80;98.30;;;;;;773259;185;26535;-74
2024/01/15 08:58:29;;;;;;;72.37;29.13;;;2.80;98.30;;;;;;773197;185;26542;-74
2024/01/15 09:00:56;;;;;;;66.93;26.03;;;2.80;98.40;;;;;;766290;184;27097;-74
2024/01/15 09:03:22;;;;;;;65.47;27.27;;;2.80;98.50;;;;;;766765;183;26534;-74
2024/01/15 09:05:49;;;;;;;73.07;25.53;;;2.70;98.40;;;;;;770533;183;27095;-74
2024/01/15 09:08:15;;;;;;;57.20;25.93;;;2.70;98.50;;;;;;770089;185;27037;-74
2024/01/15 09:10:42;;;;;;;63.37;26.23;;;2.70;98.60;;;;;;770830;186;26483;-74
2024/01/15 09:13:09;;;;;;;67.20;27.97;;;2.70;98.90;;;;;;762985;185;27121;-74
2024/01/15 09:15:35;;;;;;;60.20;27.73;;;2.70;98.70;;;;;;767373;186;26495;-74
2024/01/15 09:18:02;;;;;;;74.27;30.30;;;2.70;98.70;;;;;;772507;184;26483;-74
2024/01/15 09:20:28;;;;;;;61.13;24.63;;;2.70;98.90;;;;;;772506;184;26491;-73
2024/01/15 09:22:55;;;;;;;64.07;28.70;;;2.70;98.90;;;;;;764404;186;26629;-74
2024/01/15 09:25:21;;;;;;;54.43;24.37;;;2.60;98.80;;;;;;767944;183;26577;-73
2024/01/15 09:27:48;;;;;;;45.87;23.20;;;2.60;99.00;;;;;;767000;186;26537;-73
2024/01/15 09:30:15;;;;;;;55.47;25.10;;;2.50;99.20;;;;;;771426;183;27039;-73
2024/01/15 09:32:41;;;;;;;62.37;26.33;;;2.50;99.40;;;;;;767460;185;27034;-73
2024/01/15 09:35:08;;;;;;;50.27;20.87;;;2.50;99.60;;;;;;768095;185;26493;-72
2024/01/15 09:37:35;;;;;;;55.17;23.63;;;2.50;99.70;;;;;;763809;186;28102;-74
2024/01/15 09:40:02;;;;;;;51.13;21.17;;;2.40;99.70;;;;;;762113;185;26518;-74
2024/01/15 09:42:28;;;;;;;50.40;22.43;;;2.30;99.90;;;;;;762136;188;26479;-73
2024/01/15 09:44:55;;;;;;;37.37;18.57;;;2.30;99.90;;;;;;763769;186;26477;-73
2024/01/15 09:47:21;;;;;;;51.00;22.13;;;2.30;99.90;;;;;;765176;186;26507;-73
2024/01/15 09:49:48;;;;;;;52.23;24.40;;;2.20;99.90;;;;;;762014;186;27042;-73
2024/01/15 09:52:15;;;;;;;43.07;22.97;;;2.20;99.90;;;;;;771681;186;26549;-73
2024/01/15 09:54:41;;;;;;;38.83;17.57;;;2.20;99.90;;;;;;767382;185;27077;-73
2024/01/15 09:57:08;;;;;;;29.60;16.03;;;2.20;99.90;;;;;;766480;184;26500;-73
2024/01/15 09:59:34;;;;;;;33.03;15.87;;;2.20;99.90;;;;;;772088;185;27132;-73
2024/01/15 10:02:01;;;;;;;29.43;11.87;;;2.10;99.90;;;;;;766824;185;26479;-73
2024/01/15 10:04:27;;;;;;;29.70;12.47;;;2.10;99.90;;;;;;766338;185;26550;-75
2024/01/15 10:06:54;;;;;;;36.30;17.40;;;2.00;99.90;;;;;;768715;184;26576;-73
2024/01/15 10:09:21;;;;;;;33.13;17.30;;;2.00;99.90;;;;;;775314;184;27113;-74
2024/01/15 10:11:47;;;;;;;37.77;17.27;;;2.10;99.90;;;;;;773304;184;26521;-73
2024/01/15 10:14:14;;;;;;;28.27;13.40;;;2.10;99.90;;;;;;772449;182;27083;-75
2024/01/15 10:16:41;;;;;;;26.97;15.03;;;2.10;99.90;;;;;;767643;185;26562;-75
2024/01/15 10:19:08;;;;;;;49.70;21.17;;;2.10;99.90;;;;;;768391;185;26525;-74
2024/01/15 10:21:35;;;;;;;26.10;14.27;;;2.20;99.90;;;;;;772660;184;26527;-75
2024/01/15 10:24:03;;;;;;;31.67;15.13;;;2.20;99.90;;;;;;767789;184;26690;-65
2024/01/15 10:26:29;;;;;;;28.97;15.20;;;2.30;99.90;;;;;;771170;182;27092;-69
2024/01/15 10:28:56;;;;;;;29.60;14.67;;;2.50;99.90;;;;;;764488;184;26504;-68
2024/01/15 10:31:22;;;;;;;17.97;10.00;;;2.60;99.90;;;;;;764868;185;27519;-75
2024/01/15 10:33:49;;;;;;;25.73;13.70;;;2.40;99.90;;;;;;759032;188;26542;-74
2024/01/15 10:36:15;;;;;;;22.27;11.70;;;2.30;99.90;;;;;;758678;187;27204;-74
2024/01/15 10:38:42;;;;;;;30.27;13.83;;;2.30;99.90;;;;;;758428;187;26552;-74
2024/01/15 10:41:09;;;;;;;51.47;22.23;;;2.30;99.90;;;;;;757978;188;27126;-73
2024/01/15 10:43:36;;;;;;;24.13;11.83;;;2.30;99.90;;;;;;758404;188;26559;-74
2024/01/15 10:46:02;;;;;;;41.27;17.93;;;2.20;99.90;;;;;;759119;188;26543;-74
2024/01/15 10:48:30;;;;;;;27.33;12.70;;;2.30;99.90;;;;;;759747;185;27055;-75
2024/01/15 10:50:55;;;;;;;24.13;12.83;;;2.20;99.90;;;;;;769046;185;26519;-74
2024/01/15 10:53:22;;;;;;;26.80;13.77;;;2.20;99.90;;;;;;767536;185;27102;-75
2024/01/15 10:55:49;;;;;;;29.43;14.10;;;2.00;99.90;;;;;;764954;186;26534;-74
2024/01/15 10:58:15;;;;;;;28.67;14.97;;;1.90;99.90;;;;;;768112;186;26479;-74
2024/01/15 11:00:42;;;;;;;89.77;29.70;;;1.80;99.90;;;;;;767196;186;26511;-74
2024/01/15 11:03:08;;;;;;;25.63;12.83;;;1.70;99.90;;;;;;767173;185;26556;-74
2024/01/15 11:05:38;;;;;;;38.00;16.13;;;1.70;99.90;;;;;;767780;187;26522;-74
2024/01/15 11:08:04;;;;;;;26.27;11.83;;;1.80;99.90;;;;;;764733;184;26554;-74
2024/01/15 11:10:46;;;;;;;38.77;15.70;;;1.80;99.90;;;;;;764898;186;28111;-74
2024/01/15 11:13:16;;;;;;;65.13;25.10;;;1.90;99.90;;;;;;767509;184;26493;-74
2024/01/15 11:15:57;;;;;;;64.37;22.13;;;2.00;99.90;;;;;;767233;184;26474;-74
2024/01/15 11:18:24;;;;;;;31.60;14.07;;;2.00;99.90;;;;;;766522;184;26543;-74
2024/01/15 11:21:05;;;;;;;43.27;18.13;;;2.00;99.90;;;;;;768495;185;26508;-74
2024/01/15 11:23:42;;;;;;;48.37;20.30;;;2.10;99.90;;;;;;769444;186;26503;-74
2024/01/15 11:26:21;;;;;;;74.47;27.10;;;2.10;99.90;;;;;;768304;186;26549;-74
2024/01/15 11:28:48;;;;;;;58.37;23.87;;;2.30;99.90;;;;;;768765;186;27012;-74
2024/01/15 11:31:15;;;;;;;49.10;19.93;;;2.40;99.90;;;;;;767466;185;26519;-75
2024/01/15 11:33:41;;;;;;;110.73;38.33;;;2.40;99.90;;;;;;765395;187;26463;-75
2024/01/15 11:36:08;;;;;;;109.33;35.87;;;2.50;99.90;;;;;;768158;184;26476;-75
2024/01/15 11:38:35;;;;;;;144.47;47.67;;;2.50;99.90;;;;;;766021;185;26468;-75
2024/01/15 11:41:01;;;;;;;64.30;24.70;;;2.60;99.90;;;;;;766195;187;26845;-74
2024/01/15 11:43:31;;;;;;;81.77;30.13;;;2.60;99.90;;;;;;765214;187;27079;-75
2024/01/15 11:45:55;;;;;;;100.77;38.87;;;2.60;99.90;;;;;;764868;186;26497;-75
2024/01/15 11:48:23;;;;;;;75.37;30.50;;;2.60;99.90;;;;;;763405;187;27065;-75
2024/01/15 11:50:49;;;;;;;88.57;34.33;;;2.60;99.90;;;;;;764970;185;26561;-75
2024/01/15 11:53:18;;;;;;;40.53;21.70;;;2.60;99.90;;;;;;765390;187;28168;-75
2024/01/15 11:55:44;;;;;;;71.20;29.63;;;2.60;99.90;;;;;;762756;187;26473;-73
2024/01/15 11:58:10;;;;;;;42.63;20.97;;;2.60;99.90;;;;;;762387;185;26577;-74
2024/01/15 12:00:41;;;;;;;31.50;16.13;;;2.60;99.90;;;;;;762552;186;26598;-75
2024/01/15 12:03:07;;;;;;;65.00;29.50;;;2.60;99.90;;;;;;763084;184;28187;-74
2024/01/15 12:05:34;;;;;;;79.43;29.00;;;2.60;99.90;;;;;;762956;185;26546;-74
2024/01/15 12:08:00;;;;;;;99.00;37.80;;;2.60;99.90;;;;;;763013;184;26566;-74
2024/01/15 12:10:27;;;;;;;92.70;36.57;;;2.60;99.90;;;;;;764768;184;26593;-74
2024/01/15 12:13:05;;;;;;;54.17;26.67;;;2.50;99.90;;;;;;765112;185;27028;-74
2024/01/15 12:15:31;;;;;;;71.23;29.93;;;2.50;99.90;;;;;;765315;185;26563;-76
2024/01/15 12:17:57;;;;;;;78.27;32.63;;;2.50;99.90;;;;;;765146;185;26976;-74
2024/01/15 12:20:24;;;;;;;41.27;19.63;;;2.50;99.90;;;;;;765412;184;26578;-73
2024/01/15 12:22:51;;;;;;;44.90;21.30;;;2.70;99.90;;;;;;764957;185;26597;-74
2024/01/15 12:25:18;;;;;;;55.67;26.37;;;2.90;99.90;;;;;;757228;184;26545;-74
2024/01/15 12:27:45;;;;;;;37.17;18.37;;;3.20;99.90;;;;;;766129;184;26494;-73
2024/01/15 12:30:12;;;;;;;28.53;15.90;;;3.60;99.90;;;;;;765972;182;26989;-74
2024/01/15 12:32:41;;;;;;;37.43;16.67;;;3.90;99.30;;;;;;766485;184;26503;-74